EGKK

London Gatwick Airport

London, United Kingdom
METAR EGKK 250820Z 26012KT 9999 SCT016 12/07 Q1013
Observed Flight Rules
Apr-25 @ 08:20 UTC (23 minutes ago) Visual Flight Rules
Wind Visibility Clouds
260° at 12 knots 10,000+ meters
  • Scattered at 1,600' AGL
Temperatures Readings
Current 12°C / 54°F
Dewpoint 7°C / 45°F
Humidity 72%
Altimeter 29.91" Hg
Pressure 1013 hPa
Elevation 62
METAR EGKK 250820Z 26012KT 9999 SCT016 12/07 Q1013
Observed Flight Rules
Apr-25 @ 08:20 UTC
(23 minutes ago)
VFR
Wind Visibility
260° at 12 knots 10,000+ meters
Clouds
  • Scattered at 1,600' AGL
Temperature Dewpoint
12°C / 54°F 7°C / 45°F
Humidity Altimeter Pressure
72% 29.91" Hg 1013 hPa